Time;durP1;ratioP1;P1;durP2;ratioP2;P2;SDS_P1;SDS_P2;PMS_P1;PMS_P2;Temp;Humidity;BMP_temperature;BMP_pressure;BME280_temperature;BME280_humidity;BME280_pressure;Samples;Min_cycle;Max_cycle;Signal;HPM_P1;HPM_P2
2022/06/14 00:01:26;;;;;;;5.47;1.50;;;14.30;64.30;;;;;;5115070;28;20486;-43
2022/06/14 00:03:52;;;;;;;5.85;1.73;;;14.20;64.40;;;;;;5114915;28;20016;-43
2022/06/14 00:06:20;;;;;;;4.75;1.60;;;14.20;64.50;;;;;;5114887;28;20020;-42
2022/06/14 00:08:49;;;;;;;3.85;1.45;;;14.10;64.60;;;;;;5114541;28;20031;-43
2022/06/14 00:11:27;;;;;;;3.40;1.25;;;14.10;64.70;;;;;;5114638;28;20030;-40
2022/06/14 00:13:54;;;;;;;5.70;1.50;;;14.10;64.80;;;;;;5115444;28;20028;-42
2022/06/14 00:16:21;;;;;;;6.15;1.50;;;14.10;64.80;;;;;;5114699;28;20498;-42
2022/06/14 00:18:47;;;;;;;5.50;1.70;;;14.10;64.90;;;;;;5114309;28;20035;-43
2022/06/14 00:21:14;;;;;;;5.97;1.33;;;14.10;65.00;;;;;;5113082;28;20098;-40
2022/06/14 00:23:40;;;;;;;4.88;1.30;;;14.00;65.60;;;;;;5114719;28;20370;-42
2022/06/14 00:26:07;;;;;;;4.03;1.33;;;14.00;65.00;;;;;;5114303;28;20047;-43
2022/06/14 00:28:33;;;;;;;3.55;1.20;;;14.10;65.20;;;;;;5114277;28;20123;-42
2022/06/14 00:31:07;;;;;;;5.32;1.48;;;14.00;65.20;;;;;;5114246;28;20051;-39
2022/06/14 00:33:32;;;;;;;5.03;1.42;;;13.90;65.20;;;;;;5113919;28;20055;-47
2022/06/14 00:36:05;;;;;;;3.15;1.40;;;13.90;65.30;;;;;;5114329;28;20023;-42
2022/06/14 00:38:33;;;;;;;3.17;1.38;;;13.80;65.50;;;;;;5114025;28;20038;-43
2022/06/14 00:41:00;;;;;;;5.00;1.90;;;13.80;65.50;;;;;;5114245;28;20344;-49
2022/06/14 00:43:27;;;;;;;4.30;1.40;;;13.80;65.60;;;;;;5113796;28;20475;-42
2022/06/14 00:46:05;;;;;;;4.78;1.50;;;13.80;65.60;;;;;;5113881;28;20015;-41
2022/06/14 00:48:33;;;;;;;4.57;1.30;;;13.70;65.80;;;;;;5114196;28;20035;-41
2022/06/14 00:51:23;;;;;;;4.55;1.40;;;13.70;65.70;;;;;;5113740;28;20106;-43
2022/06/14 00:54:23;;;;;;;4.35;1.45;;;13.70;65.90;;;;;;5113756;27;20023;-41
2022/06/14 00:57:14;;;;;;;7.45;1.70;;;13.60;66.20;;;;;;5113491;28;20024;-42
2022/06/14 01:00:03;;;;;;;4.93;1.60;;;13.60;66.40;;;;;;5107477;28;20047;-43
2022/06/14 01:02:32;;;;;;;2.85;1.30;;;13.60;66.50;;;;;;5113737;28;20027;-44
2022/06/14 01:05:03;;;;;;;5.07;1.27;;;13.50;66.40;;;;;;5113346;28;20094;-42
2022/06/14 01:07:32;;;;;;;5.93;1.77;;;13.50;66.60;;;;;;5112505;27;20438;-45
2022/06/14 01:10:26;;;;;;;3.67;1.50;;;13.50;66.80;;;;;;5113610;28;20027;-41
2022/06/14 01:12:55;;;;;;;5.28;1.83;;;13.40;67.10;;;;;;5108857;27;20032;-43
2022/06/14 01:15:30;;;;;;;3.08;1.45;;;13.40;67.10;;;;;;5113497;28;20051;-42
2022/06/14 01:18:11;;;;;;;4.93;1.50;;;13.40;67.30;;;;;;5113688;28;20023;-43
2022/06/14 01:20:37;;;;;;;6.82;1.80;;;13.40;67.50;;;;;;5113385;28;20020;-43
2022/06/14 01:23:05;;;;;;;3.30;1.50;;;13.30;68.10;;;;;;5113410;28;20020;-42
2022/06/14 01:25:35;;;;;;;7.20;1.70;;;13.30;67.50;;;;;;5113389;28;20023;-44
2022/06/14 01:28:01;;;;;;;6.47;1.85;;;13.40;67.70;;;;;;5112409;27;20039;-44
2022/06/14 01:30:45;;;;;;;4.80;1.50;;;13.30;67.80;;;;;;5113367;28;20499;-37
2022/06/14 01:33:16;;;;;;;5.82;1.50;;;13.30;67.90;;;;;;5113784;28;20023;-37
2022/06/14 01:35:48;;;;;;;5.35;1.80;;;13.40;68.00;;;;;;5113268;28;20103;-37
2022/06/14 01:38:15;;;;;;;9.15;1.98;;;13.30;67.90;;;;;;5113571;28;20443;-37
2022/06/14 01:41:02;;;;;;;5.32;1.70;;;13.30;68.00;;;;;;5111942;28;20015;-37
2022/06/14 01:43:46;;;;;;;4.88;1.60;;;13.30;68.00;;;;;;5113198;28;20028;-42
2022/06/14 01:46:17;;;;;;;;;;;13.30;68.00;;;;;;5113880;28;20043;-37
2022/06/14 01:51:50;;;;;;;4.82;1.92;;;13.30;68.00;;;;;;5113067;28;20077;-37
2022/06/14 01:52:02;;;;;;;5.50;1.60;;;13.20;68.10;;;;;;5113009;28;20047;-37
2022/06/14 01:54:34;;;;;;;4.10;1.50;;;13.20;68.30;;;;;;5113267;28;20419;-35
2022/06/14 01:57:24;;;;;;;6.70;1.80;;;13.10;68.30;;;;;;5113277;28;20470;-36
2022/06/14 02:00:06;;;;;;;6.32;1.50;;;13.10;68.60;;;;;;5112709;28;20052;-36
2022/06/14 02:06:20;;;;;;;7.65;1.80;;;13.10;68.70;;;;;;5113064;28;20500;-35
2022/06/14 02:09:01;;;;;;;7.15;1.92;;;13.10;68.70;;;;;;5107050;28;20592;-36
2022/06/14 02:11:31;;;;;;;4.45;1.70;;;13.10;69.40;;;;;;5111490;28;20026;-35
2022/06/14 02:14:15;;;;;;;7.80;2.45;;;13.00;68.90;;;;;;5113178;28;20042;-36
2022/06/14 02:16:59;;;;;;;7.65;2.38;;;12.90;69.00;;;;;;5113200;28;20386;-37
2022/06/14 02:19:37;;;;;;;5.75;1.58;;;12.80;69.10;;;;;;5114534;28;20019;-35
2022/06/14 02:22:09;;;;;;;10.32;2.30;;;12.80;69.20;;;;;;5117271;28;20027;-36
2022/06/14 02:24:44;;;;;;;3.90;1.90;;;12.70;69.40;;;;;;5117072;28;20044;-37
2022/06/14 02:27:32;;;;;;;5.03;2.20;;;12.70;69.60;;;;;;5117763;28;20024;-36
2022/06/14 02:30:16;;;;;;;6.78;1.90;;;12.70;69.70;;;;;;5117609;28;20027;-37
2022/06/14 02:32:44;;;;;;;7.55;1.85;;;12.60;69.80;;;;;;5116588;28;20020;-37
2022/06/14 02:35:19;;;;;;;3.80;1.70;;;12.60;69.80;;;;;;5116624;27;20031;-37
2022/06/14 02:38:06;;;;;;;7.65;1.90;;;12.60;70.50;;;;;;5116501;28;20024;-35
2022/06/14 02:40:46;;;;;;;6.85;1.80;;;12.60;70.00;;;;;;5116858;28;20444;-35
2022/06/14 02:43:17;;;;;;;6.45;2.10;;;12.60;70.10;;;;;;5116614;28;20486;-36
2022/06/14 02:45:52;;;;;;;5.75;1.83;;;12.50;70.10;;;;;;5116619;28;20064;-37
2022/06/14 02:48:26;;;;;;;6.82;1.45;;;12.50;70.30;;;;;;5116870;28;20027;-37
2022/06/14 02:51:21;;;;;;;5.22;2.00;;;12.50;70.40;;;;;;5116912;28;20064;-36
2022/06/14 02:53:58;;;;;;;7.03;2.08;;;12.40;70.50;;;;;;5107083;28;20462;-37
2022/06/14 02:56:51;;;;;;;4.38;1.60;;;12.40;70.50;;;;;;5116397;28;20023;-35
2022/06/14 02:59:28;;;;;;;5.13;1.40;;;12.40;70.80;;;;;;5116019;28;20130;-37
2022/06/14 03:02:06;;;;;;;5.88;1.90;;;12.40;70.70;;;;;;5116119;27;20183;-36
2022/06/14 03:04:40;;;;;;;4.35;1.45;;;12.40;70.80;;;;;;5116822;28;20023;-41
2022/06/14 03:07:27;;;;;;;6.90;1.92;;;12.30;70.80;;;;;;5116047;28;20514;-37
2022/06/14 03:09:56;;;;;;;5.50;2.03;;;12.30;71.10;;;;;;5116054;28;20386;-36
2022/06/14 03:12:34;;;;;;;6.32;2.03;;;12.30;71.00;;;;;;5116130;28;20027;-37
2022/06/14 03:15:21;;;;;;;6.20;1.80;;;12.30;71.30;;;;;;5116505;28;20471;-37
2022/06/14 03:18:00;;;;;;;4.90;1.80;;;12.30;71.40;;;;;;5114337;28;20039;-36
2022/06/14 03:20:38;;;;;;;3.83;1.65;;;12.30;71.50;;;;;;5114479;28;20035;-36
2022/06/14 03:23:11;;;;;;;6.05;1.70;;;12.30;71.50;;;;;;5116018;28;20084;-37
2022/06/14 03:25:54;;;;;;;6.93;1.92;;;12.30;71.60;;;;;;5115968;28;20432;-36
2022/06/14 03:29:03;;;;;;;7.80;1.60;;;12.30;71.70;;;;;;5115732;28;20028;-37
2022/06/14 03:31:31;;;;;;;8.35;1.55;;;12.30;71.80;;;;;;5072018;28;20399;-36
2022/06/14 03:34:01;;;;;;;9.63;2.20;;;12.20;71.60;;;;;;5072685;28;20129;-37
2022/06/14 03:36:27;;;;;;;4.45;1.65;;;12.20;71.60;;;;;;5095834;28;20036;-34
2022/06/14 03:39:22;;;;;;;5.25;1.73;;;12.30;71.70;;;;;;5114206;28;20132;-36
2022/06/14 03:41:51;;;;;;;6.63;2.03;;;12.30;72.00;;;;;;5114416;28;20100;-35
2022/06/14 03:44:18;;;;;;;6.20;1.67;;;12.30;71.80;;;;;;5115412;27;20036;-37
2022/06/14 03:47:09;;;;;;;4.07;1.48;;;12.30;71.90;;;;;;5115320;28;20020;-36
2022/06/14 03:49:37;;;;;;;8.18;1.63;;;12.30;72.20;;;;;;5110317;28;20036;-42
2022/06/14 03:52:21;;;;;;;5.97;1.67;;;12.30;72.00;;;;;;5115568;28;20104;-36
2022/06/14 03:54:50;;;;;;;;;;;12.30;72.20;;;;;;5116065;28;20046;-36
2022/06/14 03:57:28;;;;;;;7.03;1.80;;;12.30;71.90;;;;;;5115464;28;20343;-43
2022/06/14 04:00:09;;;;;;;6.72;1.67;;;12.30;71.90;;;;;;5115089;28;20066;-36
2022/06/14 04:03:00;;;;;;;5.30;1.50;;;12.30;72.00;;;;;;5115247;28;20071;-36
2022/06/14 04:05:54;;;;;;;4.95;1.73;;;12.30;72.10;;;;;;5114961;28;20055;-35
2022/06/14 04:08:51;;;;;;;6.75;1.73;;;12.40;72.20;;;;;;5113799;28;20023;-35
2022/06/14 04:11:42;;;;;;;4.97;1.52;;;12.40;72.10;;;;;;5113593;28;20450;-36
2022/06/14 04:14:22;;;;;;;8.43;2.00;;;12.50;72.30;;;;;;5114947;28;20062;-36
2022/06/14 04:17:12;;;;;;;5.38;1.85;;;12.50;72.30;;;;;;5115077;28;20031;-36
2022/06/14 04:20:16;;;;;;;4.97;1.75;;;12.60;72.30;;;;;;5113599;28;20012;-35
2022/06/14 04:22:59;;;;;;;7.53;2.28;;;12.60;72.20;;;;;;5107761;28;20042;-35
2022/06/14 04:25:40;;;;;;;5.68;1.70;;;12.60;72.00;;;;;;5114600;28;20024;-37
2022/06/14 04:28:28;;;;;;;5.63;1.70;;;12.60;72.10;;;;;;5114851;28;20391;-36
2022/06/14 04:31:25;;;;;;;4.30;1.70;;;12.60;72.20;;;;;;5115081;28;20104;-37
2022/06/14 04:34:20;;;;;;;6.10;1.98;;;12.70;72.30;;;;;;5114808;28;20036;-37
2022/06/14 04:37:18;;;;;;;5.95;1.70;;;12.80;72.30;;;;;;5109716;28;20119;-37
2022/06/14 04:39:58;;;;;;;7.90;1.75;;;12.80;72.20;;;;;;5105211;28;20379;-36
2022/06/14 04:42:39;;;;;;;5.88;1.58;;;12.90;72.20;;;;;;5114685;28;20032;-37
2022/06/14 04:45:13;;;;;;;4.38;1.58;;;13.00;72.10;;;;;;5114859;28;20027;-36
2022/06/14 04:48:03;;;;;;;5.30;1.70;;;13.00;72.10;;;;;;5114788;28;20046;-36
2022/06/14 04:50:37;;;;;;;7.97;1.88;;;13.00;72.00;;;;;;5114434;28;20023;-35
2022/06/14 04:53:11;;;;;;;7.53;1.83;;;13.10;72.00;;;;;;5114483;28;20023;-36
2022/06/14 04:55:50;;;;;;;4.90;1.55;;;13.10;71.90;;;;;;5114265;28;20494;-36
2022/06/14 04:58:40;;;;;;;5.18;1.48;;;13.20;71.90;;;;;;5114172;28;20510;-37
2022/06/14 05:01:16;;;;;;;4.60;1.40;;;13.30;71.90;;;;;;5115027;28;20058;-36
2022/06/14 05:03:49;;;;;;;5.22;1.65;;;13.30;71.70;;;;;;5114460;28;20474;-37
2022/06/14 05:06:37;;;;;;;6.50;1.40;;;13.40;71.50;;;;;;5114124;28;20041;-36
2022/06/14 05:09:09;;;;;;;4.85;1.40;;;13.50;71.40;;;;;;5114521;28;20744;-37
2022/06/14 05:11:43;;;;;;;4.82;1.20;;;13.50;71.30;;;;;;5113934;28;20036;-35
2022/06/14 05:14:17;;;;;;;4.97;1.30;;;13.60;71.20;;;;;;5114241;28;20043;-36
2022/06/14 05:17:01;;;;;;;6.18;1.23;;;13.60;71.00;;;;;;5113777;28;20039;-36
2022/06/14 05:19:41;;;;;;;6.28;1.30;;;13.60;70.80;;;;;;5113722;28;20035;-36
2022/06/14 05:22:34;;;;;;;3.58;1.20;;;13.70;70.70;;;;;;5112674;28;20032;-36
2022/06/14 05:25:01;;;;;;;5.32;1.40;;;13.70;70.50;;;;;;5113659;28;20035;-42
2022/06/14 05:28:04;;;;;;;3.38;1.20;;;13.80;70.40;;;;;;5114098;28;20463;-36
2022/06/14 05:30:39;;;;;;;5.85;1.38;;;13.90;70.20;;;;;;5113652;28;20027;-36
2022/06/14 05:33:19;;;;;;;3.70;1.10;;;13.90;70.00;;;;;;5112350;28;20084;-37
2022/06/14 05:35:49;;;;;;;8.13;1.52;;;14.00;69.90;;;;;;5113850;28;20028;-37
2022/06/14 05:38:36;;;;;;;4.47;1.40;;;14.10;70.40;;;;;;5113386;28;20501;-37
2022/06/14 05:41:03;;;;;;;4.25;1.20;;;14.10;69.70;;;;;;5113462;28;20364;-37
2022/06/14 05:43:38;;;;;;;8.30;1.60;;;14.10;69.50;;;;;;5113739;28;20364;-36
2022/06/14 05:46:06;;;;;;;6.53;1.13;;;14.10;69.30;;;;;;5113652;28;20024;-37
2022/06/14 05:48:39;;;;;;;6.30;1.52;;;14.20;69.20;;;;;;5113286;28;20081;-36
2022/06/14 05:51:08;;;;;;;3.75;1.08;;;14.20;69.10;;;;;;5113536;28;20031;-36
2022/06/14 05:53:46;;;;;;;3.28;1.15;;;14.20;69.00;;;;;;5113377;28;20110;-37
2022/06/14 05:56:31;;;;;;;3.95;0.98;;;14.20;68.90;;;;;;5113307;28;20037;-37
2022/06/14 05:59:34;;;;;;;4.15;1.17;;;14.30;68.90;;;;;;5113329;28;20499;-36
2022/06/14 06:02:09;;;;;;;4.82;1.20;;;14.40;68.80;;;;;;5113210;28;20024;-35
2022/06/14 06:04:43;;;;;;;4.03;1.27;;;14.40;68.60;;;;;;5113258;28;20427;-36
2022/06/14 06:07:12;;;;;;;3.63;1.25;;;14.40;68.50;;;;;;5113288;28;20110;-36
2022/06/14 06:09:47;;;;;;;5.32;1.35;;;14.50;68.40;;;;;;5113191;28;20482;-35
2022/06/14 06:12:18;;;;;;;4.88;1.30;;;14.50;68.30;;;;;;5113184;28;20080;-36
2022/06/14 06:14:51;;;;;;;4.63;1.30;;;14.60;68.10;;;;;;5113046;28;20791;-36
2022/06/14 06:17:28;;;;;;;7.68;1.42;;;14.60;68.00;;;;;;5112965;28;20028;-36
2022/06/14 06:20:01;;;;;;;5.13;1.60;;;14.60;67.80;;;;;;5113282;28;20123;-36
2022/06/14 06:22:31;;;;;;;;;;;14.70;67.70;;;;;;5113718;28;20112;-36
2022/06/14 06:25:02;;;;;;;4.47;1.13;;;14.70;68.20;;;;;;5113042;28;20002;-37
2022/06/14 06:27:34;;;;;;;4.75;1.20;;;14.70;67.40;;;;;;5113219;28;20020;-36
2022/06/14 06:30:15;;;;;;;4.47;1.20;;;14.80;67.30;;;;;;5112981;28;20035;-36
2022/06/14 06:32:42;;;;;;;4.88;1.10;;;14.80;67.20;;;;;;5113246;28;20020;-35
2022/06/14 06:35:09;;;;;;;4.13;1.30;;;14.90;67.20;;;;;;5113019;28;20539;-36
2022/06/14 06:37:44;;;;;;;5.35;1.10;;;14.90;67.00;;;;;;5113028;28;20020;-37
2022/06/14 06:40:13;;;;;;;3.03;1.00;;;15.00;66.70;;;;;;5112915;28;20065;-36
2022/06/14 06:42:46;;;;;;;2.88;0.77;;;15.00;66.40;;;;;;5111566;28;20051;-37
2022/06/14 06:45:20;;;;;;;4.68;1.15;;;15.00;66.20;;;;;;5113164;28;20048;-38
2022/06/14 06:47:55;;;;;;;4.47;1.20;;;15.10;66.10;;;;;;5112729;28;20035;-37
2022/06/14 06:50:40;;;;;;;3.88;0.98;;;15.10;65.90;;;;;;5112713;28;20118;-37
2022/06/14 06:53:16;;;;;;;2.40;0.93;;;15.20;65.60;;;;;;5112937;28;20043;-37
2022/06/14 06:59:13;;;;;;;4.82;1.00;;;15.30;65.10;;;;;;5102991;28;20047;-35
2022/06/14 07:01:41;;;;;;;5.60;1.02;;;15.30;64.90;;;;;;5112905;28;20506;-36
2022/06/14 07:07:21;;;;;;;1.27;0.80;;;15.40;64.30;;;;;;5115473;28;20046;-37
2022/06/14 07:09:55;;;;;;;3.25;0.98;;;15.40;64.20;;;;;;5115545;28;20024;-37
2022/06/14 07:12:34;;;;;;;3.50;0.90;;;15.50;63.80;;;;;;5116544;28;20054;-37
2022/06/14 07:15:05;;;;;;;4.32;0.90;;;15.50;63.80;;;;;;5116356;28;20483;-36
2022/06/14 07:17:39;;;;;;;3.30;1.00;;;15.60;63.50;;;;;;5116662;27;20054;-37
2022/06/14 07:20:50;;;;;;;2.80;1.05;;;15.60;63.00;;;;;;5116321;28;20027;-36
2022/06/14 07:23:44;;;;;;;2.33;0.88;;;15.60;62.60;;;;;;5100081;28;20048;-36
2022/06/14 07:26:41;;;;;;;2.40;0.90;;;15.70;62.70;;;;;;5116221;28;20057;-37
2022/06/14 07:29:09;;;;;;;2.75;1.20;;;15.80;62.50;;;;;;5116134;28;20028;-36
2022/06/14 07:31:48;;;;;;;6.82;1.15;;;15.90;62.30;;;;;;5115998;27;20035;-37
2022/06/14 07:34:16;;;;;;;2.13;0.93;;;16.00;61.90;;;;;;5116000;28;20036;-37
2022/06/14 07:37:06;;;;;;;1.77;0.90;;;16.10;61.80;;;;;;5116394;28;20106;-37
2022/06/14 07:39:34;;;;;;;3.88;0.90;;;16.20;61.50;;;;;;5115950;28;20092;-36
2022/06/14 07:42:08;;;;;;;2.03;0.82;;;16.30;61.30;;;;;;5115804;28;20031;-38
2022/06/14 07:44:40;;;;;;;2.30;0.80;;;16.40;61.20;;;;;;5115764;28;20032;-37
2022/06/14 07:47:06;;;;;;;2.42;0.80;;;16.60;61.00;;;;;;5115915;28;20032;-43
2022/06/14 07:50:13;;;;;;;3.70;1.00;;;16.80;60.70;;;;;;5115996;28;20423;-37
2022/06/14 07:52:50;;;;;;;5.05;1.00;;;16.90;60.30;;;;;;5113695;28;20562;-37
2022/06/14 07:55:27;;;;;;;2.88;1.00;;;17.00;60.10;;;;;;5115640;28;20096;-37
2022/06/14 07:58:09;;;;;;;3.55;1.10;;;17.10;60.00;;;;;;5115582;28;20035;-37
2022/06/14 08:03:42;;;;;;;2.35;0.95;;;17.20;59.90;;;;;;5115641;28;20042;-37
2022/06/14 08:06:15;;;;;;;2.72;1.00;;;17.30;59.70;;;;;;5115532;28;20161;-37
2022/06/14 08:08:42;;;;;;;;;;;17.40;59.60;;;;;;5115978;28;20107;-37
2022/06/14 08:11:23;;;;;;;6.95;0.93;;;17.50;59.50;;;;;;5115587;28;19915;-36
2022/06/14 08:14:14;;;;;;;3.35;1.00;;;17.50;59.20;;;;;;5115376;28;20027;-36
2022/06/14 08:16:41;;;;;;;3.30;1.10;;;17.50;59.30;;;;;;5115188;28;20032;-37
2022/06/14 08:19:11;;;;;;;3.58;0.95;;;17.50;59.20;;;;;;5115330;28;20081;-37
2022/06/14 08:21:46;;;;;;;3.83;1.00;;;17.50;58.80;;;;;;5114907;28;20575;-37
2022/06/14 08:24:16;;;;;;;4.70;1.15;;;17.60;58.20;;;;;;5115033;28;20165;-37
2022/06/14 08:27:03;;;;;;;2.63;1.00;;;17.60;57.80;;;;;;5115554;28;20459;-37
2022/06/14 08:29:38;;;;;;;3.03;1.70;;;17.60;57.60;;;;;;5115279;28;20047;-38
2022/06/14 08:32:29;;;;;;;3.50;0.90;;;17.60;57.70;;;;;;5114869;28;20088;-38
2022/06/14 08:35:01;;;;;;;1.48;0.75;;;17.70;57.70;;;;;;5114864;28;20023;-34
2022/06/14 08:37:51;;;;;;;2.30;0.80;;;17.90;57.40;;;;;;5114662;28;20040;-38
2022/06/14 08:40:49;;;;;;;2.45;0.98;;;18.00;57.30;;;;;;5114608;28;20032;-38
2022/06/14 08:43:42;;;;;;;3.53;1.05;;;18.20;57.10;;;;;;5098490;27;20075;-37
2022/06/14 08:46:32;;;;;;;1.27;0.75;;;18.40;56.90;;;;;;5109375;28;20422;-37
2022/06/14 08:49:01;;;;;;;2.90;1.08;;;18.60;56.60;;;;;;5114645;28;20035;-36
2022/06/14 08:51:45;;;;;;;4.13;1.08;;;18.60;56.10;;;;;;5114572;28;20031;-36
2022/06/14 08:54:51;;;;;;;2.83;1.00;;;18.70;56.10;;;;;;5114436;28;20040;-36
2022/06/14 08:57:26;;;;;;;2.67;1.10;;;18.80;55.90;;;;;;5108639;28;20046;-38
2022/06/14 09:00:08;;;;;;;1.95;0.80;;;18.90;55.90;;;;;;5114270;28;20039;-37
2022/06/14 09:02:49;;;;;;;2.78;0.80;;;18.90;55.60;;;;;;5114714;28;20441;-37
2022/06/14 09:05:23;;;;;;;2.45;0.98;;;19.00;55.40;;;;;;5114587;28;20031;-36
2022/06/14 09:08:01;;;;;;;3.13;1.15;;;19.10;55.00;;;;;;5114500;28;20499;-36
2022/06/14 09:10:44;;;;;;;4.82;1.13;;;19.10;54.80;;;;;;5114393;28;20036;-37
2022/06/14 09:13:33;;;;;;;;;;;19.10;54.70;;;;;;5114534;28;20063;-37
2022/06/14 09:16:27;;;;;;;2.88;0.90;;;19.10;54.80;;;;;;5114098;28;20006;-37
2022/06/14 09:18:59;;;;;;;3.40;1.25;;;18.90;54.90;;;;;;5114341;28;20028;-37
2022/06/14 09:21:33;;;;;;;4.70;1.23;;;18.80;54.90;;;;;;5114718;28;20035;-36
2022/06/14 09:24:17;;;;;;;2.33;0.90;;;18.70;54.90;;;;;;5113993;28;20042;-36
2022/06/14 09:26:52;;;;;;;2.38;0.80;;;18.50;54.90;;;;;;5113862;28;20064;-37
2022/06/14 09:29:59;;;;;;;4.28;1.10;;;18.40;55.00;;;;;;5113175;28;20031;-37
2022/06/14 09:33:13;;;;;;;3.63;1.08;;;18.30;55.10;;;;;;5102295;28;20039;-38
2022/06/14 09:35:56;;;;;;;5.78;1.40;;;18.20;55.00;;;;;;5114155;28;20039;-37
2022/06/14 09:38:59;;;;;;;2.60;1.42;;;18.20;55.20;;;;;;5112502;28;20036;-37
2022/06/14 09:41:58;;;;;;;1.80;0.90;;;18.20;55.20;;;;;;5113978;28;20031;-37
2022/06/14 09:44:45;;;;;;;2.25;0.98;;;18.20;55.00;;;;;;5113717;28;20024;-37
2022/06/14 09:47:21;;;;;;;1.60;0.80;;;18.40;55.00;;;;;;5113632;28;20138;-38
2022/06/14 09:50:11;;;;;;;2.67;0.75;;;18.50;54.80;;;;;;5113910;28;20026;-37
2022/06/14 09:53:06;;;;;;;2.10;0.75;;;18.60;54.60;;;;;;5113558;28;20045;-37
2022/06/14 09:55:54;;;;;;;4.13;0.90;;;18.70;54.40;;;;;;5113855;28;20130;-37
2022/06/14 09:59:00;;;;;;;1.23;0.80;;;18.80;53.90;;;;;;5113227;28;20487;-37
2022/06/14 10:01:32;;;;;;;2.67;0.80;;;19.00;53.80;;;;;;5113541;28;20116;-37
2022/06/14 10:04:01;;;;;;;2.08;0.90;;;19.30;53.80;;;;;;5113485;28;20031;-36
2022/06/14 10:06:48;;;;;;;1.50;0.68;;;19.50;53.60;;;;;;5113388;28;20111;-37
2022/06/14 10:09:24;;;;;;;1.73;0.63;;;19.70;53.30;;;;;;5113519;28;20079;-37
2022/06/14 10:12:08;;;;;;;1.88;0.73;;;20.00;53.10;;;;;;5113716;28;20034;-37
2022/06/14 10:14:40;;;;;;;;;;;20.20;52.80;;;;;;5113911;28;20387;-37
2022/06/14 10:17:30;;;;;;;1.60;0.80;;;20.40;52.80;;;;;;5113209;28;19912;-36
2022/06/14 10:20:10;;;;;;;1.73;0.80;;;20.40;52.40;;;;;;5113256;28;20122;-35
2022/06/14 10:23:00;;;;;;;2.13;0.90;;;20.50;52.30;;;;;;5113294;28;20040;-37
2022/06/14 10:28:49;;;;;;;2.22;0.80;;;20.60;51.90;;;;;;5113646;28;20175;-37
2022/06/14 10:31:43;;;;;;;1.67;0.70;;;20.70;51.70;;;;;;5113127;28;20023;-36
2022/06/14 10:34:35;;;;;;;2.08;0.80;;;20.70;51.50;;;;;;5112948;28;20028;-36
2022/06/14 10:37:21;;;;;;;3.15;1.02;;;20.60;51.40;;;;;;5113006;28;20038;-36
2022/06/14 10:40:08;;;;;;;1.60;1.05;;;20.50;51.20;;;;;;5113575;28;20031;-36
2022/06/14 10:42:46;;;;;;;1.73;0.75;;;20.40;51.10;;;;;;5117010;27;20096;-37
2022/06/14 10:45:31;;;;;;;3.28;1.05;;;20.20;51.20;;;;;;5116890;28;20024;-37
2022/06/14 10:48:25;;;;;;;2.25;1.00;;;20.10;51.20;;;;;;5116959;28;20142;-38
2022/06/14 10:51:15;;;;;;;2.92;1.00;;;19.90;51.30;;;;;;5116972;28;20039;-37
2022/06/14 10:54:01;;;;;;;2.70;1.00;;;19.80;51.40;;;;;;5117118;28;20463;-37
2022/06/14 10:56:45;;;;;;;2.05;0.93;;;19.80;51.70;;;;;;5109008;28;20059;-36
2022/06/14 10:59:31;;;;;;;1.75;0.90;;;19.70;51.40;;;;;;5116477;28;20031;-36
2022/06/14 11:02:07;;;;;;;4.13;0.95;;;19.70;51.50;;;;;;5116751;28;20376;-37
2022/06/14 11:04:48;;;;;;;1.65;0.75;;;19.70;51.30;;;;;;5115580;28;20062;-37
2022/06/14 11:07:38;;;;;;;2.28;0.80;;;19.90;51.20;;;;;;5116791;28;20069;-36
2022/06/14 11:10:11;;;;;;;2.97;1.10;;;19.90;51.20;;;;;;5115089;28;20557;-35
2022/06/14 11:12:56;;;;;;;;;;;20.00;51.20;;;;;;5117151;28;20516;-35
2022/06/14 11:15:30;;;;;;;2.95;1.00;;;20.10;50.90;;;;;;5116683;28;20382;-35
2022/06/14 11:18:31;;;;;;;2.15;1.00;;;20.10;50.90;;;;;;5116174;28;20036;-35
2022/06/14 11:21:14;;;;;;;2.55;1.00;;;19.90;51.00;;;;;;5073423;28;20052;-35
2022/06/14 11:23:49;;;;;;;1.92;0.77;;;19.90;51.20;;;;;;5113306;28;20044;-36
2022/06/14 11:26:19;;;;;;;2.95;1.40;;;19.80;51.50;;;;;;5116144;28;20022;-36
2022/06/14 11:32:51;;;;;;;3.22;0.90;;;19.70;51.70;;;;;;5116573;28;20431;-37
2022/06/14 11:35:40;;;;;;;1.55;0.73;;;19.60;51.80;;;;;;5073129;28;20040;-36
2022/06/14 11:38:40;;;;;;;2.25;1.00;;;19.60;51.70;;;;;;5115653;28;20156;-34
2022/06/14 11:41:08;;;;;;;1.98;0.70;;;19.80;51.70;;;;;;5116186;28;20170;-34
2022/06/14 11:43:49;;;;;;;2.97;0.95;;;20.00;51.40;;;;;;5116003;28;20020;-36
2022/06/14 11:46:37;;;;;;;1.88;0.77;;;20.30;51.20;;;;;;5115864;28;20028;-37
2022/06/14 11:49:23;;;;;;;2.00;1.00;;;20.50;51.10;;;;;;5115720;28;20020;-37
2022/06/14 11:52:18;;;;;;;2.13;0.90;;;20.70;50.80;;;;;;5115185;28;20430;-37
2022/06/14 11:55:16;;;;;;;1.50;0.75;;;20.80;50.50;;;;;;5116004;28;20459;-36
2022/06/14 11:57:58;;;;;;;3.35;0.90;;;20.90;50.50;;;;;;5115666;28;20036;-36
2022/06/14 12:00:32;;;;;;;7.75;1.35;;;21.00;50.40;;;;;;5115589;27;20078;-36
2022/06/14 12:03:07;;;;;;;5.00;0.90;;;21.00;50.50;;;;;;5115499;28;20028;-37
2022/06/14 12:06:08;;;;;;;3.58;0.95;;;20.80;50.60;;;;;;5116103;28;20067;-35
2022/06/14 12:08:57;;;;;;;3.97;1.02;;;20.70;50.90;;;;;;5115652;28;20047;-37
2022/06/14 12:11:26;;;;;;;2.83;0.80;;;20.60;51.20;;;;;;5115703;28;20035;-35
2022/06/14 12:14:10;;;;;;;2.75;0.90;;;20.60;51.50;;;;;;5115786;28;20524;-37
2022/06/14 12:16:40;;;;;;;1.67;0.80;;;20.70;51.50;;;;;;5115395;28;20040;-36
2022/06/14 12:19:20;;;;;;;2.40;0.98;;;21.00;51.30;;;;;;5115690;28;20038;-35
2022/06/14 12:22:00;;;;;;;2.08;0.88;;;21.30;51.00;;;;;;5115666;28;20027;-37
2022/06/14 12:27:19;;;;;;;;;;;21.90;50.10;;;;;;5114416;28;20088;-36
2022/06/14 12:29:50;;;;;;;3.75;1.10;;;22.20;50.00;;;;;;5114882;28;20093;-37
2022/06/14 12:32:47;;;;;;;2.63;1.10;;;22.30;49.70;;;;;;5114757;28;20372;-36
2022/06/14 12:35:17;;;;;;;2.22;0.90;;;22.40;49.20;;;;;;5092730;28;20040;-38
2022/06/14 12:37:54;;;;;;;3.85;0.77;;;22.60;49.00;;;;;;5114743;28;20032;-37
2022/06/14 12:40:57;;;;;;;2.70;0.90;;;22.70;49.00;;;;;;5114773;28;20027;-37
2022/06/14 12:43:42;;;;;;;1.92;0.82;;;22.90;48.80;;;;;;5114760;28;20028;-38
2022/06/14 12:46:15;;;;;;;3.13;1.00;;;23.00;48.70;;;;;;5113595;28;20069;-36
2022/06/14 12:49:00;;;;;;;3.15;1.13;;;23.10;48.70;;;;;;5114946;28;20024;-53
2022/06/14 12:51:30;;;;;;;2.03;1.00;;;23.20;47.80;;;;;;5114798;28;20043;-38
2022/06/14 12:54:30;;;;;;;2.60;1.00;;;23.20;48.00;;;;;;5113371;28;20070;-37
2022/06/14 12:57:07;;;;;;;1.02;0.70;;;23.30;47.60;;;;;;5114701;28;20118;-38
2022/06/14 12:59:41;;;;;;;3.67;1.27;;;23.40;47.60;;;;;;5114686;28;20078;-37
2022/06/14 13:02:17;;;;;;;1.77;1.00;;;23.50;47.40;;;;;;5114718;28;20088;-36
2022/06/14 13:05:21;;;;;;;3.17;1.00;;;23.60;47.00;;;;;;5113845;28;20034;-38
2022/06/14 13:08:17;;;;;;;1.77;0.90;;;23.60;46.90;;;;;;5093382;28;20032;-37
2022/06/14 13:10:57;;;;;;;2.38;1.00;;;23.70;46.90;;;;;;5110998;28;20157;-37
2022/06/14 13:13:32;;;;;;;2.00;0.73;;;23.90;46.80;;;;;;5114333;28;20107;-38
2022/06/14 13:16:06;;;;;;;2.72;0.85;;;23.90;46.70;;;;;;5114500;28;20024;-38
2022/06/14 13:18:41;;;;;;;1.85;0.98;;;24.00;46.40;;;;;;5114415;27;20101;-38
2022/06/14 13:21:22;;;;;;;2.70;0.80;;;24.00;46.40;;;;;;5114242;28;20020;-38
2022/06/14 13:24:27;;;;;;;1.38;0.65;;;24.10;46.10;;;;;;5114419;28;20471;-38
2022/06/14 13:27:07;;;;;;;2.80;0.90;;;24.10;46.00;;;;;;5094252;28;20043;-38
2022/06/14 13:29:52;;;;;;;2.85;0.93;;;24.10;46.00;;;;;;5114006;28;20395;-38
2022/06/14 13:32:42;;;;;;;3.28;1.00;;;24.00;45.80;;;;;;5113904;28;20035;-38
2022/06/14 13:35:28;;;;;;;2.10;1.00;;;23.90;46.10;;;;;;5114057;28;20374;-36
2022/06/14 13:37:59;;;;;;;2.20;0.70;;;23.80;46.10;;;;;;5113808;28;20028;-38
2022/06/14 13:40:47;;;;;;;4.13;1.17;;;23.70;46.40;;;;;;5113940;28;20242;-37
2022/06/14 13:43:33;;;;;;;1.80;0.85;;;23.60;47.00;;;;;;5113743;28;20031;-37
2022/06/14 13:46:22;;;;;;;3.45;0.90;;;23.60;46.40;;;;;;5113691;28;20028;-37
2022/06/14 13:48:58;;;;;;;2.05;0.95;;;23.60;46.60;;;;;;5113655;28;20039;-37
2022/06/14 13:51:24;;;;;;;3.38;1.20;;;23.50;46.00;;;;;;5113481;28;20038;-37
2022/06/14 13:54:20;;;;;;;5.22;1.20;;;23.50;46.30;;;;;;5113774;28;20106;-38
2022/06/14 13:57:07;;;;;;;3.28;0.80;;;23.60;46.30;;;;;;5111389;28;20067;-38
2022/06/14 13:59:36;;;;;;;3.25;1.05;;;23.80;46.20;;;;;;5113508;28;20131;-38
2022/06/14 14:02:10;;;;;;;4.72;1.02;;;24.10;46.00;;;;;;5112180;28;20031;-38
2022/06/14 14:04:42;;;;;;;3.42;0.95;;;24.30;45.80;;;;;;5113679;28;20031;-38
2022/06/14 14:07:28;;;;;;;1.75;0.85;;;24.40;45.50;;;;;;5113476;28;20048;-37
2022/06/14 14:10:21;;;;;;;1.45;1.00;;;24.60;45.30;;;;;;5113456;28;20028;-37
2022/06/14 14:12:56;;;;;;;1.77;0.80;;;24.80;45.00;;;;;;5113346;28;20027;-38
2022/06/14 14:16:07;;;;;;;1.80;0.70;;;25.10;44.90;;;;;;5115226;28;20027;-38
2022/06/14 14:18:56;;;;;;;2.60;1.00;;;25.20;44.70;;;;;;5101428;28;20044;-38